sensor_id;sensor_type;location;lat;lon;timestamp;temperature;humidity
22706;DHT22;11520;51.198;4.468;2022-08-30T00:00:27;18.40;99.90
22706;DHT22;11520;51.198;4.468;2022-08-30T00:03:12;18.30;99.90
22706;DHT22;11520;51.198;4.468;2022-08-30T00:05:42;18.30;99.90
22706;DHT22;11520;51.198;4.468;2022-08-30T00:08:08;18.30;99.90
22706;DHT22;11520;51.198;4.468;2022-08-30T00:10:34;18.30;99.90
22706;DHT22;11520;51.198;4.468;2022-08-30T00:13:02;18.20;99.90
22706;DHT22;11520;51.198;4.468;2022-08-30T00:15:27;18.20;99.90
22706;DHT22;11520;51.198;4.468;2022-08-30T00:17:54;18.20;99.90
22706;DHT22;11520;51.198;4.468;2022-08-30T00:20:27;18.30;99.90
22706;DHT22;11520;51.198;4.468;2022-08-30T00:22:54;18.30;99.90
22706;DHT22;11520;51.198;4.468;2022-08-30T00:25:20;18.30;99.90
22706;DHT22;11520;51.198;4.468;2022-08-30T00:27:46;18.30;99.90
22706;DHT22;11520;51.198;4.468;2022-08-30T00:30:14;18.30;99.90
22706;DHT22;11520;51.198;4.468;2022-08-30T00:32:41;18.50;99.90
22706;DHT22;11520;51.198;4.468;2022-08-30T00:35:09;18.50;99.90
22706;DHT22;11520;51.198;4.468;2022-08-30T00:37:35;18.60;99.90
22706;DHT22;11520;51.198;4.468;2022-08-30T00:40:02;18.60;99.90
22706;DHT22;11520;51.198;4.468;2022-08-30T00:42:30;18.60;99.90
22706;DHT22;11520;51.198;4.468;2022-08-30T00:44:55;18.60;99.90
22706;DHT22;11520;51.198;4.468;2022-08-30T00:47:21;18.60;99.90
22706;DHT22;11520;51.198;4.468;2022-08-30T00:49:51;18.60;99.90
22706;DHT22;11520;51.198;4.468;2022-08-30T00:52:19;18.70;99.90
22706;DHT22;11520;51.198;4.468;2022-08-30T00:54:46;18.70;99.90
22706;DHT22;11520;51.198;4.468;2022-08-30T00:57:14;18.60;99.90
22706;DHT22;11520;51.198;4.468;2022-08-30T00:59:43;18.60;99.90
22706;DHT22;11520;51.198;4.468;2022-08-30T01:02:09;18.60;99.90
22706;DHT22;11520;51.198;4.468;2022-08-30T01:04:36;18.60;99.90
22706;DHT22;11520;51.198;4.468;2022-08-30T01:07:02;18.60;99.90
22706;DHT22;11520;51.198;4.468;2022-08-30T01:09:28;18.50;99.90
22706;DHT22;11520;51.198;4.468;2022-08-30T01:11:54;18.50;99.90
22706;DHT22;11520;51.198;4.468;2022-08-30T01:14:21;18.40;99.90
22706;DHT22;11520;51.198;4.468;2022-08-30T01:16:48;18.40;99.90
22706;DHT22;11520;51.198;4.468;2022-08-30T01:25:14;18.20;99.90
22706;DHT22;11520;51.198;4.468;2022-08-30T01:27:54;18.10;99.90
22706;DHT22;11520;51.198;4.468;2022-08-30T01:30:22;18.10;99.90
22706;DHT22;11520;51.198;4.468;2022-08-30T01:32:54;18.00;99.90
22706;DHT22;11520;51.198;4.468;2022-08-30T01:35:20;18.00;99.90
22706;DHT22;11520;51.198;4.468;2022-08-30T01:37:47;17.90;99.90
22706;DHT22;11520;51.198;4.468;2022-08-30T01:40:14;17.90;99.90
22706;DHT22;11520;51.198;4.468;2022-08-30T01:42:41;17.80;99.90
22706;DHT22;11520;51.198;4.468;2022-08-30T01:45:08;17.80;99.90
22706;DHT22;11520;51.198;4.468;2022-08-30T01:47:35;17.80;99.90
22706;DHT22;11520;51.198;4.468;2022-08-30T01:50:00;17.70;99.90
22706;DHT22;11520;51.198;4.468;2022-08-30T01:52:26;17.80;99.90
22706;DHT22;11520;51.198;4.468;2022-08-30T01:54:52;17.80;99.90
22706;DHT22;11520;51.198;4.468;2022-08-30T01:57:20;17.90;99.90
22706;DHT22;11520;51.198;4.468;2022-08-30T01:59:47;18.00;99.90
22706;DHT22;11520;51.198;4.468;2022-08-30T02:02:20;18.00;99.90
22706;DHT22;11520;51.198;4.468;2022-08-30T02:04:46;18.00;99.90
22706;DHT22;11520;51.198;4.468;2022-08-30T02:07:11;17.90;99.90
22706;DHT22;11520;51.198;4.468;2022-08-30T02:09:37;18.00;99.90
22706;DHT22;11520;51.198;4.468;2022-08-30T02:12:04;17.90;99.90
22706;DHT22;11520;51.198;4.468;2022-08-30T02:14:32;17.90;99.90
22706;DHT22;11520;51.198;4.468;2022-08-30T02:16:58;17.90;99.90
22706;DHT22;11520;51.198;4.468;2022-08-30T02:19:23;17.90;99.90
22706;DHT22;11520;51.198;4.468;2022-08-30T02:21:50;17.80;99.90
22706;DHT22;11520;51.198;4.468;2022-08-30T02:24:19;17.80;99.90
22706;DHT22;11520;51.198;4.468;2022-08-30T02:26:45;17.80;99.90
22706;DHT22;11520;51.198;4.468;2022-08-30T02:29:11;17.70;99.90
22706;DHT22;11520;51.198;4.468;2022-08-30T02:31:37;17.80;99.90
22706;DHT22;11520;51.198;4.468;2022-08-30T02:34:03;17.80;99.90
22706;DHT22;11520;51.198;4.468;2022-08-30T02:36:28;17.90;99.90
22706;DHT22;11520;51.198;4.468;2022-08-30T02:38:55;17.90;99.90
22706;DHT22;11520;51.198;4.468;2022-08-30T02:41:21;17.90;99.90
22706;DHT22;11520;51.198;4.468;2022-08-30T02:43:49;17.90;99.90
22706;DHT22;11520;51.198;4.468;2022-08-30T02:46:16;17.80;99.90
22706;DHT22;11520;51.198;4.468;2022-08-30T02:48:42;17.70;99.90
22706;DHT22;11520;51.198;4.468;2022-08-30T02:51:11;17.70;99.90
22706;DHT22;11520;51.198;4.468;2022-08-30T02:53:37;17.60;99.90
22706;DHT22;11520;51.198;4.468;2022-08-30T02:56:03;17.50;99.90
22706;DHT22;11520;51.198;4.468;2022-08-30T02:58:29;17.50;99.90
22706;DHT22;11520;51.198;4.468;2022-08-30T03:00:54;17.40;99.90
22706;DHT22;11520;51.198;4.468;2022-08-30T03:03:21;17.30;99.90
22706;DHT22;11520;51.198;4.468;2022-08-30T03:05:47;17.30;99.90
22706;DHT22;11520;51.198;4.468;2022-08-30T03:08:14;17.30;99.90
22706;DHT22;11520;51.198;4.468;2022-08-30T03:10:39;17.30;99.90
22706;DHT22;11520;51.198;4.468;2022-08-30T03:13:09;17.30;99.90
22706;DHT22;11520;51.198;4.468;2022-08-30T03:15:37;17.30;99.90
22706;DHT22;11520;51.198;4.468;2022-08-30T03:18:03;17.40;99.90
22706;DHT22;11520;51.198;4.468;2022-08-30T03:20:30;17.30;99.90
22706;DHT22;11520;51.198;4.468;2022-08-30T03:22:56;17.40;99.90
22706;DHT22;11520;51.198;4.468;2022-08-30T03:25:23;17.40;99.90
22706;DHT22;11520;51.198;4.468;2022-08-30T03:27:49;17.30;99.90
22706;DHT22;11520;51.198;4.468;2022-08-30T03:30:16;17.40;99.90
22706;DHT22;11520;51.198;4.468;2022-08-30T03:32:42;17.30;99.90
22706;DHT22;11520;51.198;4.468;2022-08-30T03:35:10;17.20;99.90
22706;DHT22;11520;51.198;4.468;2022-08-30T03:37:38;17.20;99.90
22706;DHT22;11520;51.198;4.468;2022-08-30T03:40:07;17.20;99.90
22706;DHT22;11520;51.198;4.468;2022-08-30T03:42:34;17.20;99.90
22706;DHT22;11520;51.198;4.468;2022-08-30T03:44:59;17.20;99.90
22706;DHT22;11520;51.198;4.468;2022-08-30T03:47:27;17.30;99.90
22706;DHT22;11520;51.198;4.468;2022-08-30T03:49:54;17.30;99.90
22706;DHT22;11520;51.198;4.468;2022-08-30T03:52:20;17.30;99.90
22706;DHT22;11520;51.198;4.468;2022-08-30T03:54:45;17.20;99.90
22706;DHT22;11520;51.198;4.468;2022-08-30T03:57:11;17.00;99.90
22706;DHT22;11520;51.198;4.468;2022-08-30T03:59:37;17.00;99.90
22706;DHT22;11520;51.198;4.468;2022-08-30T04:02:04;17.00;99.90
22706;DHT22;11520;51.198;4.468;2022-08-30T04:04:30;17.00;99.90
22706;DHT22;11520;51.198;4.468;2022-08-30T04:06:55;17.00;99.90
22706;DHT22;11520;51.198;4.468;2022-08-30T04:09:21;17.00;99.90
22706;DHT22;11520;51.198;4.468;2022-08-30T04:11:47;16.90;99.90
22706;DHT22;11520;51.198;4.468;2022-08-30T04:14:13;16.80;99.90
22706;DHT22;11520;51.198;4.468;2022-08-30T04:16:39;16.80;99.90
22706;DHT22;11520;51.198;4.468;2022-08-30T04:19:06;16.80;99.90
22706;DHT22;11520;51.198;4.468;2022-08-30T04:21:31;16.90;99.90
22706;DHT22;11520;51.198;4.468;2022-08-30T04:23:57;16.90;99.90
22706;DHT22;11520;51.198;4.468;2022-08-30T04:26:25;17.00;99.90
22706;DHT22;11520;51.198;4.468;2022-08-30T04:28:53;17.00;99.90
22706;DHT22;11520;51.198;4.468;2022-08-30T04:31:19;17.00;99.90
22706;DHT22;11520;51.198;4.468;2022-08-30T04:33:46;17.00;99.90
22706;DHT22;11520;51.198;4.468;2022-08-30T04:36:11;17.00;99.90
22706;DHT22;11520;51.198;4.468;2022-08-30T04:38:39;16.90;99.90
22706;DHT22;11520;51.198;4.468;2022-08-30T04:41:14;17.00;99.90
22706;DHT22;11520;51.198;4.468;2022-08-30T04:43:42;16.90;99.90
22706;DHT22;11520;51.198;4.468;2022-08-30T04:46:09;16.90;99.90
22706;DHT22;11520;51.198;4.468;2022-08-30T04:48:36;17.00;99.90
22706;DHT22;11520;51.198;4.468;2022-08-30T04:51:05;17.00;99.90
22706;DHT22;11520;51.198;4.468;2022-08-30T04:53:31;17.00;99.90
22706;DHT22;11520;51.198;4.468;2022-08-30T04:55:56;17.00;99.90
22706;DHT22;11520;51.198;4.468;2022-08-30T04:58:22;17.00;99.90
22706;DHT22;11520;51.198;4.468;2022-08-30T05:00:49;17.20;99.90
22706;DHT22;11520;51.198;4.468;2022-08-30T05:03:15;17.30;99.90
22706;DHT22;11520;51.198;4.468;2022-08-30T05:05:49;17.20;99.90
22706;DHT22;11520;51.198;4.468;2022-08-30T05:08:18;17.30;99.90
22706;DHT22;11520;51.198;4.468;2022-08-30T05:10:47;17.20;99.90
22706;DHT22;11520;51.198;4.468;2022-08-30T05:13:15;17.30;99.90
22706;DHT22;11520;51.198;4.468;2022-08-30T05:15:41;17.30;99.90
22706;DHT22;11520;51.198;4.468;2022-08-30T05:18:08;17.40;99.90
22706;DHT22;11520;51.198;4.468;2022-08-30T05:20:35;17.50;99.90
22706;DHT22;11520;51.198;4.468;2022-08-30T05:23:01;17.40;99.90
22706;DHT22;11520;51.198;4.468;2022-08-30T05:25:30;17.50;99.90
22706;DHT22;11520;51.198;4.468;2022-08-30T05:27:56;17.50;99.90
22706;DHT22;11520;51.198;4.468;2022-08-30T05:30:24;17.40;99.90
22706;DHT22;11520;51.198;4.468;2022-08-30T05:32:50;17.50;99.90
22706;DHT22;11520;51.198;4.468;2022-08-30T05:35:17;17.30;99.90
22706;DHT22;11520;51.198;4.468;2022-08-30T05:37:43;17.40;99.90
22706;DHT22;11520;51.198;4.468;2022-08-30T05:40:10;17.50;99.90
22706;DHT22;11520;51.198;4.468;2022-08-30T05:42:37;17.40;99.90
22706;DHT22;11520;51.198;4.468;2022-08-30T05:45:07;17.40;99.90
22706;DHT22;11520;51.198;4.468;2022-08-30T05:47:34;17.60;99.90
22706;DHT22;11520;51.198;4.468;2022-08-30T05:50:00;17.50;99.90
22706;DHT22;11520;51.198;4.468;2022-08-30T05:52:25;17.30;99.90
22706;DHT22;11520;51.198;4.468;2022-08-30T05:54:54;17.30;99.90
22706;DHT22;11520;51.198;4.468;2022-08-30T05:57:21;17.30;99.90
22706;DHT22;11520;51.198;4.468;2022-08-30T05:59:47;17.40;99.90
22706;DHT22;11520;51.198;4.468;2022-08-30T06:02:13;17.40;99.90
22706;DHT22;11520;51.198;4.468;2022-08-30T06:04:38;17.30;99.90
22706;DHT22;11520;51.198;4.468;2022-08-30T06:07:05;17.30;99.90
22706;DHT22;11520;51.198;4.468;2022-08-30T06:09:31;17.20;99.90
22706;DHT22;11520;51.198;4.468;2022-08-30T06:11:57;17.50;99.90
22706;DHT22;11520;51.198;4.468;2022-08-30T06:14:25;17.60;99.90
22706;DHT22;11520;51.198;4.468;2022-08-30T06:16:52;17.70;99.90
22706;DHT22;11520;51.198;4.468;2022-08-30T06:19:18;18.00;99.90
22706;DHT22;11520;51.198;4.468;2022-08-30T06:21:47;18.30;99.90
22706;DHT22;11520;51.198;4.468;2022-08-30T06:24:14;18.40;99.90
22706;DHT22;11520;51.198;4.468;2022-08-30T06:26:42;18.50;99.90
22706;DHT22;11520;51.198;4.468;2022-08-30T06:29:18;18.60;99.90
22706;DHT22;11520;51.198;4.468;2022-08-30T06:31:45;18.40;99.90
22706;DHT22;11520;51.198;4.468;2022-08-30T06:34:13;18.30;99.90
22706;DHT22;11520;51.198;4.468;2022-08-30T06:36:39;18.40;99.90
22706;DHT22;11520;51.198;4.468;2022-08-30T06:39:09;18.70;99.90
22706;DHT22;11520;51.198;4.468;2022-08-30T06:41:37;19.10;99.90
22706;DHT22;11520;51.198;4.468;2022-08-30T06:44:05;19.40;99.90
22706;DHT22;11520;51.198;4.468;2022-08-30T06:46:35;19.90;99.90
22706;DHT22;11520;51.198;4.468;2022-08-30T06:49:03;20.30;99.90
22706;DHT22;11520;51.198;4.468;2022-08-30T06:51:32;20.00;99.90
22706;DHT22;11520;51.198;4.468;2022-08-30T06:53:58;20.50;99.90
22706;DHT22;11520;51.198;4.468;2022-08-30T06:56:25;20.80;99.90
22706;DHT22;11520;51.198;4.468;2022-08-30T06:58:51;20.80;99.90
22706;DHT22;11520;51.198;4.468;2022-08-30T07:01:20;20.80;99.90
22706;DHT22;11520;51.198;4.468;2022-08-30T07:03:49;20.80;99.90
22706;DHT22;11520;51.198;4.468;2022-08-30T07:06:15;21.30;99.90
22706;DHT22;11520;51.198;4.468;2022-08-30T07:08:46;21.10;99.90
22706;DHT22;11520;51.198;4.468;2022-08-30T07:11:12;20.90;99.90
22706;DHT22;11520;51.198;4.468;2022-08-30T07:13:38;21.30;99.90
22706;DHT22;11520;51.198;4.468;2022-08-30T07:16:13;21.50;99.90
22706;DHT22;11520;51.198;4.468;2022-08-30T07:18:41;21.60;99.90
22706;DHT22;11520;51.198;4.468;2022-08-30T07:21:33;22.10;99.90
22706;DHT22;11520;51.198;4.468;2022-08-30T07:24:00;22.70;99.90
22706;DHT22;11520;51.198;4.468;2022-08-30T07:26:37;22.50;99.90
22706;DHT22;11520;51.198;4.468;2022-08-30T07:29:04;21.90;99.90
22706;DHT22;11520;51.198;4.468;2022-08-30T07:31:30;22.50;99.90
22706;DHT22;11520;51.198;4.468;2022-08-30T07:33:59;22.90;99.90
22706;DHT22;11520;51.198;4.468;2022-08-30T07:36:24;22.90;99.90
22706;DHT22;11520;51.198;4.468;2022-08-30T07:38:50;22.90;99.90
22706;DHT22;11520;51.198;4.468;2022-08-30T07:41:23;22.90;99.90
22706;DHT22;11520;51.198;4.468;2022-08-30T07:43:49;22.70;99.90
22706;DHT22;11520;51.198;4.468;2022-08-30T07:46:15;22.50;99.90
22706;DHT22;11520;51.198;4.468;2022-08-30T07:48:41;22.70;99.90
22706;DHT22;11520;51.198;4.468;2022-08-30T07:51:12;22.80;99.90
22706;DHT22;11520;51.198;4.468;2022-08-30T07:53:40;23.00;99.90
22706;DHT22;11520;51.198;4.468;2022-08-30T07:56:06;23.70;99.90
22706;DHT22;11520;51.198;4.468;2022-08-30T07:58:32;23.40;99.90
22706;DHT22;11520;51.198;4.468;2022-08-30T08:00:58;23.20;99.90
22706;DHT22;11520;51.198;4.468;2022-08-30T08:03:27;23.50;99.90
22706;DHT22;11520;51.198;4.468;2022-08-30T08:05:55;23.60;99.90
22706;DHT22;11520;51.198;4.468;2022-08-30T08:08:21;23.40;99.90
22706;DHT22;11520;51.198;4.468;2022-08-30T08:10:48;23.40;99.90
22706;DHT22;11520;51.198;4.468;2022-08-30T08:13:14;24.00;99.90
22706;DHT22;11520;51.198;4.468;2022-08-30T08:15:39;24.30;99.90
22706;DHT22;11520;51.198;4.468;2022-08-30T08:18:08;24.70;99.90
22706;DHT22;11520;51.198;4.468;2022-08-30T08:20:35;24.80;99.90
22706;DHT22;11520;51.198;4.468;2022-08-30T08:23:01;25.00;99.90
22706;DHT22;11520;51.198;4.468;2022-08-30T08:25:28;24.90;99.90
22706;DHT22;11520;51.198;4.468;2022-08-30T08:27:55;25.30;99.90
22706;DHT22;11520;51.198;4.468;2022-08-30T08:30:22;25.10;99.90
22706;DHT22;11520;51.198;4.468;2022-08-30T08:32:48;25.50;99.90
22706;DHT22;11520;51.198;4.468;2022-08-30T08:35:15;25.30;99.90
22706;DHT22;11520;51.198;4.468;2022-08-30T08:37:42;26.40;99.90
22706;DHT22;11520;51.198;4.468;2022-08-30T08:40:13;26.50;99.90
22706;DHT22;11520;51.198;4.468;2022-08-30T08:43:01;26.60;99.90
22706;DHT22;11520;51.198;4.468;2022-08-30T08:50:51;28.70;98.30
22706;DHT22;11520;51.198;4.468;2022-08-30T08:53:36;29.60;96.20
22706;DHT22;11520;51.198;4.468;2022-08-30T08:56:12;30.30;93.70
22706;DHT22;11520;51.198;4.468;2022-08-30T08:58:49;28.60;94.70
22706;DHT22;11520;51.198;4.468;2022-08-30T09:01:19;28.70;95.50
22706;DHT22;11520;51.198;4.468;2022-08-30T09:03:45;28.20;97.00
22706;DHT22;11520;51.198;4.468;2022-08-30T09:09:38;29.30;93.60
22706;DHT22;11520;51.198;4.468;2022-08-30T09:12:07;28.10;95.80
22706;DHT22;11520;51.198;4.468;2022-08-30T09:14:38;28.00;96.50
22706;DHT22;11520;51.198;4.468;2022-08-30T09:17:47;27.70;96.80
22706;DHT22;11520;51.198;4.468;2022-08-30T09:22:35;27.40;95.90
22706;DHT22;11520;51.198;4.468;2022-08-30T09:25:07;26.90;97.90
22706;DHT22;11520;51.198;4.468;2022-08-30T09:27:44;27.10;97.50
22706;DHT22;11520;51.198;4.468;2022-08-30T09:30:26;27.40;97.50
22706;DHT22;11520;51.198;4.468;2022-08-30T09:33:02;28.30;95.40
22706;DHT22;11520;51.198;4.468;2022-08-30T09:35:43;27.00;96.30
22706;DHT22;11520;51.198;4.468;2022-08-30T09:38:16;26.60;98.40
22706;DHT22;11520;51.198;4.468;2022-08-30T09:43:22;27.60;96.30
22706;DHT22;11520;51.198;4.468;2022-08-30T09:51:10;27.90;95.30
22706;DHT22;11520;51.198;4.468;2022-08-30T09:53:53;27.60;94.40
22706;DHT22;11520;51.198;4.468;2022-08-30T10:01:45;27.80;95.90
22706;DHT22;11520;51.198;4.468;2022-08-30T10:04:35;28.00;94.90
22706;DHT22;11520;51.198;4.468;2022-08-30T10:07:38;27.50;94.80
22706;DHT22;11520;51.198;4.468;2022-08-30T10:18:36;28.80;94.10
22706;DHT22;11520;51.198;4.468;2022-08-30T10:21:16;29.30;92.10
22706;DHT22;11520;51.198;4.468;2022-08-30T10:23:56;28.20;92.90
22706;DHT22;11520;51.198;4.468;2022-08-30T10:26:31;28.20;94.10
22706;DHT22;11520;51.198;4.468;2022-08-30T10:29:09;28.00;93.70
22706;DHT22;11520;51.198;4.468;2022-08-30T10:31:55;27.60;95.60
22706;DHT22;11520;51.198;4.468;2022-08-30T10:34:30;27.20;95.30
22706;DHT22;11520;51.198;4.468;2022-08-30T10:37:07;27.00;96.30
22706;DHT22;11520;51.198;4.468;2022-08-30T10:39:42;28.00;95.00
22706;DHT22;11520;51.198;4.468;2022-08-30T10:42:23;27.90;94.20
22706;DHT22;11520;51.198;4.468;2022-08-30T10:45:06;27.90;93.40
22706;DHT22;11520;51.198;4.468;2022-08-30T10:47:35;27.30;94.50
22706;DHT22;11520;51.198;4.468;2022-08-30T10:50:22;27.60;95.20
22706;DHT22;11520;51.198;4.468;2022-08-30T10:52:55;27.70;94.40
22706;DHT22;11520;51.198;4.468;2022-08-30T10:55:25;27.90;94.10
22706;DHT22;11520;51.198;4.468;2022-08-30T10:57:58;27.80;94.70
22706;DHT22;11520;51.198;4.468;2022-08-30T11:00:30;28.10;93.40
22706;DHT22;11520;51.198;4.468;2022-08-30T11:14:05;28.10;92.00
22706;DHT22;11520;51.198;4.468;2022-08-30T11:16:40;27.60;93.30
22706;DHT22;11520;51.198;4.468;2022-08-30T11:19:36;27.30;93.40
22706;DHT22;11520;51.198;4.468;2022-08-30T11:22:22;27.40;93.70
22706;DHT22;11520;51.198;4.468;2022-08-30T11:25:15;27.80;93.30
22706;DHT22;11520;51.198;4.468;2022-08-30T11:28:02;27.30;92.90
22706;DHT22;11520;51.198;4.468;2022-08-30T11:33:25;26.90;94.20
22706;DHT22;11520;51.198;4.468;2022-08-30T11:35:51;27.50;93.20
22706;DHT22;11520;51.198;4.468;2022-08-30T11:49:23;26.90;94.00
22706;DHT22;11520;51.198;4.468;2022-08-30T11:52:03;27.10;93.80
22706;DHT22;11520;51.198;4.468;2022-08-30T12:00:35;26.40;94.40
22706;DHT22;11520;51.198;4.468;2022-08-30T12:03:05;26.60;94.50
22706;DHT22;11520;51.198;4.468;2022-08-30T12:10:56;25.50;96.00
22706;DHT22;11520;51.198;4.468;2022-08-30T12:16:03;25.90;96.20
22706;DHT22;11520;51.198;4.468;2022-08-30T12:18:46;25.90;95.80
22706;DHT22;11520;51.198;4.468;2022-08-30T12:26:48;25.60;96.90
22706;DHT22;11520;51.198;4.468;2022-08-30T12:34:30;25.80;96.20
22706;DHT22;11520;51.198;4.468;2022-08-30T12:37:23;26.00;95.50
22706;DHT22;11520;51.198;4.468;2022-08-30T12:40:20;25.60;95.60
22706;DHT22;11520;51.198;4.468;2022-08-30T12:42:59;25.90;95.60
22706;DHT22;11520;51.198;4.468;2022-08-30T12:45:42;26.00;95.10
22706;DHT22;11520;51.198;4.468;2022-08-30T12:48:14;26.40;95.30
22706;DHT22;11520;51.198;4.468;2022-08-30T12:50:50;26.00;94.90
22706;DHT22;11520;51.198;4.468;2022-08-30T12:53:31;25.90;95.50
22706;DHT22;11520;51.198;4.468;2022-08-30T12:56:07;26.20;95.20
22706;DHT22;11520;51.198;4.468;2022-08-30T12:58:38;26.20;94.80
22706;DHT22;11520;51.198;4.468;2022-08-30T13:01:29;26.10;94.90
22706;DHT22;11520;51.198;4.468;2022-08-30T13:04:18;26.00;95.10
22706;DHT22;11520;51.198;4.468;2022-08-30T13:06:48;26.20;94.40
22706;DHT22;11520;51.198;4.468;2022-08-30T13:09:38;26.50;94.50
22706;DHT22;11520;51.198;4.468;2022-08-30T13:12:07;27.00;93.70
22706;DHT22;11520;51.198;4.468;2022-08-30T13:14:43;26.80;93.20
22706;DHT22;11520;51.198;4.468;2022-08-30T13:19:54;26.70;93.70
22706;DHT22;11520;51.198;4.468;2022-08-30T13:22:41;26.20;93.60
22706;DHT22;11520;51.198;4.468;2022-08-30T13:25:08;26.20;94.00
22706;DHT22;11520;51.198;4.468;2022-08-30T13:27:36;26.10;94.00
22706;DHT22;11520;51.198;4.468;2022-08-30T13:30:13;26.00;94.20
22706;DHT22;11520;51.198;4.468;2022-08-30T13:32:41;25.90;94.00
22706;DHT22;11520;51.198;4.468;2022-08-30T13:35:08;26.00;94.20
22706;DHT22;11520;51.198;4.468;2022-08-30T13:37:36;25.90;94.40
22706;DHT22;11520;51.198;4.468;2022-08-30T13:40:04;25.90;93.90
22706;DHT22;11520;51.198;4.468;2022-08-30T13:42:30;25.70;94.40
22706;DHT22;11520;51.198;4.468;2022-08-30T13:44:55;25.70;94.90
22706;DHT22;11520;51.198;4.468;2022-08-30T13:47:21;26.00;94.40
22706;DHT22;11520;51.198;4.468;2022-08-30T13:49:48;25.80;94.50
22706;DHT22;11520;51.198;4.468;2022-08-30T13:52:16;25.80;95.00
22706;DHT22;11520;51.198;4.468;2022-08-30T13:54:43;26.00;94.80
22706;DHT22;11520;51.198;4.468;2022-08-30T13:57:10;26.00;93.90
22706;DHT22;11520;51.198;4.468;2022-08-30T13:59:37;25.60;93.80
22706;DHT22;11520;51.198;4.468;2022-08-30T14:02:04;25.50;94.20
22706;DHT22;11520;51.198;4.468;2022-08-30T14:04:29;25.60;94.00
22706;DHT22;11520;51.198;4.468;2022-08-30T14:06:55;25.80;94.00
22706;DHT22;11520;51.198;4.468;2022-08-30T14:09:20;25.70;94.10
22706;DHT22;11520;51.198;4.468;2022-08-30T14:11:46;25.50;94.60
22706;DHT22;11520;51.198;4.468;2022-08-30T14:14:12;25.40;94.40
22706;DHT22;11520;51.198;4.468;2022-08-30T14:16:40;25.50;94.30
22706;DHT22;11520;51.198;4.468;2022-08-30T14:19:06;25.70;94.40
22706;DHT22;11520;51.198;4.468;2022-08-30T14:21:32;25.80;94.40
22706;DHT22;11520;51.198;4.468;2022-08-30T14:23:59;25.80;93.20
22706;DHT22;11520;51.198;4.468;2022-08-30T14:26:30;25.90;93.40
22706;DHT22;11520;51.198;4.468;2022-08-30T14:28:57;26.00;93.10
22706;DHT22;11520;51.198;4.468;2022-08-30T14:31:23;26.20;92.90
22706;DHT22;11520;51.198;4.468;2022-08-30T14:33:49;26.30;92.30
22706;DHT22;11520;51.198;4.468;2022-08-30T14:36:16;26.10;92.00
22706;DHT22;11520;51.198;4.468;2022-08-30T14:38:42;26.10;92.70
22706;DHT22;11520;51.198;4.468;2022-08-30T14:41:08;26.10;92.30
22706;DHT22;11520;51.198;4.468;2022-08-30T14:43:35;26.00;92.70
22706;DHT22;11520;51.198;4.468;2022-08-30T14:46:03;26.00;92.60
22706;DHT22;11520;51.198;4.468;2022-08-30T14:48:30;26.20;92.50
22706;DHT22;11520;51.198;4.468;2022-08-30T14:50:56;26.40;92.40
22706;DHT22;11520;51.198;4.468;2022-08-30T14:53:21;26.50;91.60
22706;DHT22;11520;51.198;4.468;2022-08-30T14:55:47;26.70;91.50
22706;DHT22;11520;51.198;4.468;2022-08-30T14:58:13;26.60;90.80
22706;DHT22;11520;51.198;4.468;2022-08-30T15:00:52;26.50;90.70
22706;DHT22;11520;51.198;4.468;2022-08-30T15:03:18;26.30;91.10
22706;DHT22;11520;51.198;4.468;2022-08-30T15:05:49;26.20;91.70
22706;DHT22;11520;51.198;4.468;2022-08-30T15:08:15;26.00;91.00
22706;DHT22;11520;51.198;4.468;2022-08-30T15:10:42;25.90;91.30
22706;DHT22;11520;51.198;4.468;2022-08-30T15:13:10;25.80;90.90
22706;DHT22;11520;51.198;4.468;2022-08-30T15:15:36;25.90;91.40
22706;DHT22;11520;51.198;4.468;2022-08-30T15:18:01;26.20;91.30
22706;DHT22;11520;51.198;4.468;2022-08-30T15:20:28;26.20;90.50
22706;DHT22;11520;51.198;4.468;2022-08-30T15:22:55;26.30;90.70
22706;DHT22;11520;51.198;4.468;2022-08-30T15:25:20;26.00;90.70
22706;DHT22;11520;51.198;4.468;2022-08-30T15:27:46;25.90;90.90
22706;DHT22;11520;51.198;4.468;2022-08-30T15:30:12;26.10;90.80
22706;DHT22;11520;51.198;4.468;2022-08-30T15:32:41;26.10;90.70
22706;DHT22;11520;51.198;4.468;2022-08-30T15:35:07;26.00;90.70
22706;DHT22;11520;51.198;4.468;2022-08-30T15:37:34;25.90;90.70
22706;DHT22;11520;51.198;4.468;2022-08-30T15:40:04;25.70;90.00
22706;DHT22;11520;51.198;4.468;2022-08-30T15:42:30;25.80;90.50
22706;DHT22;11520;51.198;4.468;2022-08-30T15:44:59;25.70;90.50
22706;DHT22;11520;51.198;4.468;2022-08-30T15:47:26;25.80;90.60
22706;DHT22;11520;51.198;4.468;2022-08-30T15:49:57;25.90;90.30
22706;DHT22;11520;51.198;4.468;2022-08-30T15:52:24;25.70;89.90
22706;DHT22;11520;51.198;4.468;2022-08-30T15:54:50;25.50;90.40
22706;DHT22;11520;51.198;4.468;2022-08-30T15:57:16;25.40;90.80
22706;DHT22;11520;51.198;4.468;2022-08-30T15:59:42;25.50;91.20
22706;DHT22;11520;51.198;4.468;2022-08-30T16:02:10;25.40;90.60
22706;DHT22;11520;51.198;4.468;2022-08-30T16:04:35;25.50;90.90
22706;DHT22;11520;51.198;4.468;2022-08-30T16:07:02;25.50;90.40
22706;DHT22;11520;51.198;4.468;2022-08-30T16:09:29;25.50;90.30
22706;DHT22;11520;51.198;4.468;2022-08-30T16:11:55;25.50;90.50
22706;DHT22;11520;51.198;4.468;2022-08-30T16:14:21;25.50;90.00
22706;DHT22;11520;51.198;4.468;2022-08-30T16:16:47;25.50;89.50
22706;DHT22;11520;51.198;4.468;2022-08-30T16:19:12;25.50;88.80
22706;DHT22;11520;51.198;4.468;2022-08-30T16:21:38;25.50;89.00
22706;DHT22;11520;51.198;4.468;2022-08-30T16:24:13;25.40;89.50
22706;DHT22;11520;51.198;4.468;2022-08-30T16:26:39;25.30;89.10
22706;DHT22;11520;51.198;4.468;2022-08-30T16:29:06;25.30;89.20
22706;DHT22;11520;51.198;4.468;2022-08-30T16:31:33;25.20;88.80
22706;DHT22;11520;51.198;4.468;2022-08-30T16:34:00;25.10;89.70
22706;DHT22;11520;51.198;4.468;2022-08-30T16:36:27;25.30;89.10
22706;DHT22;11520;51.198;4.468;2022-08-30T16:38:54;25.20;89.30
22706;DHT22;11520;51.198;4.468;2022-08-30T16:41:20;25.00;88.30
22706;DHT22;11520;51.198;4.468;2022-08-30T16:43:48;24.90;88.60
22706;DHT22;11520;51.198;4.468;2022-08-30T16:46:16;24.90;89.20
22706;DHT22;11520;51.198;4.468;2022-08-30T16:48:44;24.90;88.80
22706;DHT22;11520;51.198;4.468;2022-08-30T16:51:13;24.90;88.70
22706;DHT22;11520;51.198;4.468;2022-08-30T16:53:40;24.70;89.50
22706;DHT22;11520;51.198;4.468;2022-08-30T16:56:13;24.90;89.30
22706;DHT22;11520;51.198;4.468;2022-08-30T16:58:40;24.70;88.80
22706;DHT22;11520;51.198;4.468;2022-08-30T17:01:08;24.60;89.70
22706;DHT22;11520;51.198;4.468;2022-08-30T17:03:33;24.60;89.50
22706;DHT22;11520;51.198;4.468;2022-08-30T17:05:59;24.50;89.80
22706;DHT22;11520;51.198;4.468;2022-08-30T17:08:25;24.50;90.00
22706;DHT22;11520;51.198;4.468;2022-08-30T17:10:52;24.50;90.10
22706;DHT22;11520;51.198;4.468;2022-08-30T17:13:18;24.50;89.90